createdAt,value
2018-06-27T00:02:18.663Z,3.80
2018-06-27T00:04:46.626Z,3.90
2018-06-27T00:07:14.447Z,4.10
2018-06-27T00:09:42.224Z,3.70
2018-06-27T00:12:10.048Z,3.90
2018-06-27T00:14:37.854Z,4.20
2018-06-27T00:17:05.666Z,3.50
2018-06-27T00:19:33.447Z,3.77
2018-06-27T00:22:01.401Z,3.17
2018-06-27T00:24:29.233Z,4.27
2018-06-27T00:26:57.019Z,3.60
2018-06-27T00:29:24.843Z,4.33
2018-06-27T00:31:52.632Z,3.60
2018-06-27T00:34:21.620Z,4.87
2018-06-27T00:36:51.824Z,4.50
2018-06-27T00:39:20.654Z,3.63
2018-06-27T00:41:49.297Z,3.53
2018-06-27T00:44:17.186Z,4.13
2018-06-27T00:46:44.981Z,4.20
2018-06-27T00:49:12.783Z,4.00
2018-06-27T00:51:40.582Z,4.40
2018-06-27T00:54:09.647Z,3.83
2018-06-27T00:56:39.130Z,3.80
2018-06-27T00:59:07.217Z,4.70
2018-06-27T01:01:35.393Z,4.17
2018-06-27T01:04:03.206Z,4.17
2018-06-27T01:06:30.995Z,4.60
2018-06-27T01:08:58.798Z,4.50
2018-06-27T01:11:26.582Z,4.30
2018-06-27T01:13:54.391Z,4.20
2018-06-27T01:16:22.495Z,3.60
2018-06-27T01:18:50.308Z,4.07
2018-06-27T01:21:18.097Z,4.07
2018-06-27T01:23:45.906Z,3.77
2018-06-27T01:26:13.729Z,4.20
2018-06-27T01:28:41.557Z,4.23
2018-06-27T01:31:09.338Z,4.30
2018-06-27T01:33:37.468Z,4.00
2018-06-27T01:36:05.424Z,3.90
2018-06-27T01:38:33.232Z,4.37
2018-06-27T01:41:01.011Z,4.43
2018-06-27T01:43:28.808Z,4.37
2018-06-27T01:45:56.687Z,4.70
2018-06-27T01:48:24.491Z,4.37
2018-06-27T01:50:52.365Z,4.37
2018-06-27T01:53:20.201Z,4.47
2018-06-27T01:55:48.005Z,4.07
2018-06-27T01:58:15.807Z,5.00
2018-06-27T02:00:43.593Z,5.60
2018-06-27T02:03:11.390Z,4.60
2018-06-27T02:05:39.169Z,4.57
2018-06-27T02:08:07.188Z,4.77
2018-06-27T02:10:34.988Z,4.67
2018-06-27T02:13:02.771Z,4.60
2018-06-27T02:15:30.587Z,4.47
2018-06-27T02:17:58.386Z,4.67
2018-06-27T02:20:26.198Z,4.70
2018-06-27T02:22:55.015Z,5.00
2018-06-27T02:25:22.834Z,4.40
2018-06-27T02:27:50.650Z,4.27
2018-06-27T02:30:18.460Z,4.70
2018-06-27T02:32:46.243Z,4.97
2018-06-27T02:35:14.053Z,5.30
2018-06-27T02:37:48.515Z,4.87
2018-06-27T02:40:16.336Z,4.80
2018-06-27T02:42:44.118Z,5.50
2018-06-27T02:45:11.932Z,5.27
2018-06-27T02:47:39.716Z,4.83
2018-06-27T02:50:07.528Z,5.20
2018-06-27T02:52:35.327Z,5.30
2018-06-27T02:55:03.138Z,5.80
2018-06-27T02:57:30.937Z,6.00
2018-06-27T02:59:58.757Z,5.23
2018-06-27T03:02:26.560Z,6.10
2018-06-27T03:04:54.355Z,5.70
2018-06-27T03:07:22.176Z,6.87
2018-06-27T03:09:49.979Z,5.30
2018-06-27T03:12:17.809Z,4.90
2018-06-27T03:14:45.579Z,5.63
2018-06-27T03:17:13.412Z,5.80
2018-06-27T03:19:41.207Z,5.17
2018-06-27T03:22:09.007Z,6.10
2018-06-27T03:24:36.803Z,6.10
2018-06-27T03:27:04.631Z,5.47
2018-06-27T03:29:32.454Z,5.67
2018-06-27T03:32:00.251Z,5.30
2018-06-27T03:34:28.032Z,5.70
2018-06-27T03:36:55.837Z,6.33
2018-06-27T03:39:23.637Z,5.77
2018-06-27T03:41:51.454Z,5.03
2018-06-27T03:44:19.249Z,5.60
2018-06-27T03:46:47.225Z,5.60
2018-06-27T03:49:15.084Z,5.80
2018-06-27T03:51:42.887Z,5.20
2018-06-27T03:54:10.670Z,5.10
2018-06-27T03:56:38.463Z,6.53
2018-06-27T03:59:06.327Z,6.50
2018-06-27T04:01:34.062Z,5.13
2018-06-27T04:04:01.865Z,5.83
2018-06-27T04:06:29.663Z,5.17
2018-06-27T04:08:57.482Z,4.87
2018-06-27T04:11:25.279Z,5.03
2018-06-27T04:13:53.146Z,5.40
2018-06-27T04:16:20.934Z,4.73
2018-06-27T04:18:48.739Z,5.60
2018-06-27T04:21:16.531Z,5.47
2018-06-27T04:23:44.327Z,5.43
2018-06-27T04:26:12.130Z,5.27
2018-06-27T04:28:39.966Z,4.63
2018-06-27T04:31:07.770Z,5.60
2018-06-27T04:33:35.577Z,5.30
2018-06-27T04:36:03.428Z,4.80
2018-06-27T04:38:31.176Z,5.33
2018-06-27T04:40:58.991Z,5.10
2018-06-27T04:43:26.780Z,4.00
2018-06-27T04:45:54.605Z,5.10
2018-06-27T04:48:22.385Z,5.17
2018-06-27T04:50:50.201Z,4.20
2018-06-27T04:53:17.985Z,5.10
2018-06-27T04:55:45.799Z,5.23
2018-06-27T04:58:13.687Z,5.70
2018-06-27T05:00:41.495Z,6.30
2018-06-27T05:03:09.283Z,4.90
2018-06-27T05:05:37.134Z,5.47
2018-06-27T05:08:04.927Z,6.03
2018-06-27T05:10:32.730Z,5.90
2018-06-27T05:13:00.515Z,6.00
2018-06-27T05:15:28.346Z,6.17
2018-06-27T05:17:56.139Z,6.47
2018-06-27T05:20:23.941Z,6.63
2018-06-27T05:22:51.731Z,6.43
2018-06-27T05:25:19.531Z,6.10
2018-06-27T05:27:47.439Z,5.97
2018-06-27T05:30:15.231Z,6.63
2018-06-27T05:32:43.030Z,6.10
2018-06-27T05:35:10.821Z,6.20
2018-06-27T05:37:38.635Z,7.60
2018-06-27T05:40:06.436Z,7.10
2018-06-27T05:42:34.262Z,6.43
2018-06-27T05:45:02.112Z,6.73
2018-06-27T05:47:29.919Z,6.60
2018-06-27T05:49:57.741Z,7.37
2018-06-27T05:52:25.551Z,7.43
2018-06-27T05:54:58.783Z,7.33
2018-06-27T05:57:26.596Z,7.80
2018-06-27T05:59:54.405Z,7.17
2018-06-27T06:02:22.219Z,7.53
2018-06-27T06:04:50.020Z,8.00
2018-06-27T06:07:17.822Z,7.23
2018-06-27T06:09:45.629Z,7.50
2018-06-27T06:12:13.431Z,8.87
2018-06-27T06:14:41.242Z,8.00
2018-06-27T06:17:09.054Z,7.87
2018-06-27T06:19:36.878Z,8.13
2018-06-27T06:22:04.658Z,7.93
2018-06-27T06:24:36.958Z,7.67
2018-06-27T06:27:05.047Z,8.10
2018-06-27T06:29:32.883Z,8.13
2018-06-27T06:32:00.715Z,7.50
2018-06-27T06:34:28.532Z,6.80
2018-06-27T06:36:56.331Z,7.90
2018-06-27T06:39:24.153Z,7.50
2018-06-27T06:41:51.957Z,7.33
2018-06-27T06:44:19.783Z,7.93
2018-06-27T06:46:47.586Z,8.43
2018-06-27T06:49:15.455Z,7.73
2018-06-27T06:51:43.286Z,8.20
2018-06-27T06:54:11.082Z,8.30
2018-06-27T06:56:39.111Z,8.37
2018-06-27T06:59:06.914Z,7.80
2018-06-27T07:01:34.731Z,7.57
2018-06-27T07:04:02.534Z,9.03
2018-06-27T07:06:30.379Z,7.43
2018-06-27T07:08:58.182Z,7.30
2018-06-27T07:11:26.023Z,8.10
2018-06-27T07:13:53.822Z,8.73
2018-06-27T07:16:21.652Z,8.03
2018-06-27T07:18:49.617Z,8.53
2018-06-27T07:21:17.674Z,7.73
2018-06-27T07:23:45.756Z,7.30
2018-06-27T07:26:13.596Z,7.17
2018-06-27T07:28:41.924Z,8.27
2018-06-27T07:31:10.491Z,8.30
2018-06-27T07:33:51.317Z,7.20
2018-06-27T07:36:34.957Z,7.00
2018-06-27T07:39:05.835Z,6.27
2018-06-27T07:41:35.704Z,7.50
2018-06-27T07:44:04.792Z,8.27
2018-06-27T07:46:35.476Z,7.83
2018-06-27T07:49:03.540Z,7.83
2018-06-27T07:51:32.897Z,7.50
2018-06-27T07:54:01.070Z,7.23
2018-06-27T07:56:29.972Z,6.43
2018-06-27T07:59:00.318Z,7.20
2018-06-27T08:01:30.075Z,6.57
2018-06-27T08:03:57.923Z,7.50
2018-06-27T08:06:30.201Z,6.80
2018-06-27T08:08:58.466Z,6.90
2018-06-27T08:11:26.271Z,6.40
2018-06-27T08:13:54.100Z,6.50
2018-06-27T08:16:21.920Z,7.47
2018-06-27T08:18:49.763Z,6.90
2018-06-27T08:21:17.572Z,5.73
2018-06-27T08:23:45.390Z,6.90
2018-06-27T08:26:13.289Z,6.00
2018-06-27T08:28:41.040Z,5.70
2018-06-27T08:31:08.890Z,5.67
2018-06-27T08:33:36.695Z,5.93
2018-06-27T08:36:13.498Z,5.67
2018-06-27T08:38:42.506Z,5.37
2018-06-27T08:41:10.634Z,5.40
2018-06-27T08:43:39.347Z,4.73
2018-06-27T08:46:07.115Z,4.37
2018-06-27T08:48:38.091Z,4.07
2018-06-27T08:51:05.942Z,4.17
2018-06-27T08:53:34.243Z,4.50
2018-06-27T08:56:04.185Z,4.03
2018-06-27T08:58:32.254Z,4.60
2018-06-27T09:01:00.083Z,4.80
2018-06-27T09:03:27.902Z,4.60
2018-06-27T09:05:55.707Z,4.10
2018-06-27T09:08:23.732Z,4.37
2018-06-27T09:10:51.750Z,3.80
2018-06-27T09:13:19.910Z,4.23
2018-06-27T09:15:47.711Z,3.70
2018-06-27T09:18:15.519Z,3.57
2018-06-27T09:20:44.492Z,2.83
2018-06-27T09:23:12.471Z,2.90
2018-06-27T09:25:40.278Z,2.40
2018-06-27T09:28:08.091Z,2.60
2018-06-27T09:30:36.152Z,1.93
2018-06-27T09:33:03.965Z,1.83
2018-06-27T09:35:35.969Z,2.33
2018-06-27T09:38:07.023Z,1.70
2018-06-27T09:40:34.923Z,1.63
2018-06-27T09:43:03.680Z,2.00
2018-06-27T09:45:33.459Z,2.70
2018-06-27T09:48:02.470Z,2.23
2018-06-27T09:50:30.339Z,2.40
2018-06-27T09:52:59.934Z,1.70
2018-06-27T09:55:27.771Z,1.73
2018-06-27T09:57:55.587Z,2.13
2018-06-27T10:00:28.969Z,2.00
2018-06-27T10:02:56.783Z,1.50
2018-06-27T10:05:27.626Z,1.40
2018-06-27T10:07:57.429Z,1.70
2018-06-27T10:10:26.324Z,1.80
2018-06-27T10:12:56.369Z,1.67
2018-06-27T10:15:25.259Z,1.60
2018-06-27T10:17:53.110Z,1.60
2018-06-27T10:20:22.199Z,1.63
2018-06-27T10:22:50.005Z,1.40
2018-06-27T10:25:17.939Z,2.03
2018-06-27T10:27:45.755Z,1.87
2018-06-27T10:30:13.579Z,1.50
2018-06-27T10:32:41.491Z,1.90
2018-06-27T10:35:09.459Z,1.83
2018-06-27T10:37:37.631Z,1.60
2018-06-27T10:40:05.447Z,1.50
2018-06-27T10:42:33.261Z,1.80
2018-06-27T10:45:01.071Z,1.67
2018-06-27T10:47:28.880Z,1.60
2018-06-27T10:49:56.668Z,1.80
2018-06-27T10:52:24.483Z,1.90
2018-06-27T10:54:53.433Z,1.90
2018-06-27T10:57:22.194Z,2.03
2018-06-27T10:59:50.897Z,1.93
2018-06-27T11:02:18.728Z,1.80
2018-06-27T11:04:46.743Z,1.90
2018-06-27T11:07:14.558Z,1.90
2018-06-27T11:09:42.359Z,2.10
2018-06-27T11:12:10.152Z,2.50
2018-06-27T11:14:37.964Z,2.43
2018-06-27T11:17:05.759Z,2.70
2018-06-27T11:19:33.605Z,2.20
2018-06-27T11:22:01.391Z,2.10
2018-06-27T11:24:29.215Z,1.90
2018-06-27T11:26:57.049Z,2.07
2018-06-27T11:29:24.819Z,2.37
2018-06-27T11:31:52.618Z,2.50
2018-06-27T11:34:21.050Z,2.67
2018-06-27T11:36:49.049Z,2.63
2018-06-27T11:39:16.878Z,2.43
2018-06-27T11:41:44.674Z,2.50
2018-06-27T11:44:12.484Z,2.40
2018-06-27T11:46:40.394Z,2.57
2018-06-27T11:49:08.371Z,2.30
2018-06-27T11:51:36.332Z,3.20
2018-06-27T11:54:04.365Z,2.50
2018-06-27T11:56:32.898Z,2.60
2018-06-27T11:59:00.942Z,2.20
2018-06-27T12:01:29.003Z,2.70
2018-06-27T12:03:57.291Z,3.03
2018-06-27T12:06:25.263Z,2.90
2018-06-27T12:08:53.079Z,2.20
2018-06-27T12:11:20.923Z,2.00
2018-06-27T12:13:50.203Z,2.10
2018-06-27T12:16:18.248Z,2.30
2018-06-27T12:18:46.446Z,2.10
2018-06-27T12:21:14.493Z,2.40
2018-06-27T12:23:42.306Z,2.13
2018-06-27T12:26:10.115Z,2.20
2018-06-27T12:28:37.918Z,2.33
2018-06-27T12:31:05.754Z,2.47
2018-06-27T12:33:33.542Z,2.23
2018-06-27T12:36:01.359Z,2.07
2018-06-27T12:38:29.147Z,2.10
2018-06-27T12:40:56.954Z,1.83
2018-06-27T12:43:25.038Z,1.73
2018-06-27T12:45:53.174Z,1.30
2018-06-27T12:48:21.063Z,1.60
2018-06-27T12:50:48.950Z,1.63
2018-06-27T12:53:17.143Z,1.90
2018-06-27T12:55:52.095Z,1.67
2018-06-27T12:58:20.500Z,1.60
2018-06-27T13:00:48.598Z,1.67
2018-06-27T13:03:16.432Z,1.50
2018-06-27T13:05:44.215Z,1.60
2018-06-27T13:08:12.004Z,1.77
2018-06-27T13:10:39.819Z,2.10
2018-06-27T13:13:07.611Z,2.13
2018-06-27T13:15:35.474Z,2.40
2018-06-27T13:18:03.270Z,2.10
2018-06-27T13:20:31.106Z,2.20
2018-06-27T13:22:58.907Z,2.10
2018-06-27T13:25:26.879Z,2.37
2018-06-27T13:27:54.874Z,2.50
2018-06-27T13:30:22.697Z,2.60
2018-06-27T13:32:50.509Z,2.83
2018-06-27T13:35:18.309Z,2.33
2018-06-27T13:37:46.117Z,2.67
2018-06-27T13:40:14.050Z,2.10
2018-06-27T13:42:41.883Z,2.70
2018-06-27T13:45:09.707Z,2.70
2018-06-27T13:47:37.516Z,2.80
2018-06-27T13:50:05.471Z,3.07
2018-06-27T13:52:33.214Z,3.00
2018-06-27T13:55:01.016Z,2.70
2018-06-27T13:57:29.266Z,3.10
2018-06-27T13:59:58.455Z,2.90
2018-06-27T14:02:26.261Z,2.73
2018-06-27T14:04:54.051Z,3.93
2018-06-27T14:07:21.903Z,3.80
2018-06-27T14:09:49.719Z,3.10
2018-06-27T14:12:17.535Z,3.50
2018-06-27T14:14:51.971Z,3.80
2018-06-27T14:17:19.782Z,4.27
2018-06-27T14:19:47.581Z,4.77
2018-06-27T14:22:15.386Z,3.93
2018-06-27T14:24:43.195Z,4.37
2018-06-27T14:27:11.015Z,4.67
2018-06-27T14:29:38.866Z,4.50
2018-06-27T14:32:06.690Z,4.70
2018-06-27T14:34:34.487Z,4.67
2018-06-27T14:37:02.309Z,4.90
2018-06-27T14:39:30.113Z,4.20
2018-06-27T14:41:57.935Z,4.53
2018-06-27T14:44:25.727Z,4.40
2018-06-27T14:46:53.553Z,4.67
2018-06-27T14:49:21.356Z,3.90
2018-06-27T14:51:49.230Z,4.47
2018-06-27T14:54:17.073Z,3.47
2018-06-27T14:56:44.863Z,3.80
2018-06-27T14:59:12.730Z,4.17
2018-06-27T15:01:40.551Z,3.53
2018-06-27T15:04:08.363Z,3.60
2018-06-27T15:06:36.188Z,3.60
2018-06-27T15:09:05.402Z,3.50
2018-06-27T15:11:33.206Z,3.80
2018-06-27T15:14:01.031Z,3.00
2018-06-27T15:16:28.837Z,3.27
2018-06-27T15:18:56.675Z,3.23
2018-06-27T15:21:24.477Z,3.10
2018-06-27T15:23:52.293Z,2.90
2018-06-27T15:26:20.087Z,3.50
2018-06-27T15:28:47.918Z,2.80
2018-06-27T15:31:15.738Z,2.87
2018-06-27T15:33:43.566Z,2.80
2018-06-27T15:36:11.354Z,2.30
2018-06-27T15:38:39.166Z,2.40
2018-06-27T15:41:06.977Z,2.60
2018-06-27T15:43:34.926Z,1.87
2018-06-27T15:46:02.752Z,2.20
2018-06-27T15:48:30.560Z,2.10
2018-06-27T15:50:58.357Z,1.80
2018-06-27T15:53:26.206Z,1.80
2018-06-27T15:55:54.011Z,1.37
2018-06-27T15:58:21.834Z,2.00
2018-06-27T16:00:49.634Z,1.57
2018-06-27T16:03:17.462Z,1.60
2018-06-27T16:05:45.276Z,1.60
2018-06-27T16:08:13.083Z,1.93
2018-06-27T16:10:40.905Z,1.73
2018-06-27T16:13:08.712Z,1.50
2018-06-27T16:15:36.847Z,1.30
2018-06-27T16:18:04.691Z,1.47
2018-06-27T16:20:34.039Z,1.57
2018-06-27T16:23:01.994Z,1.40
2018-06-27T16:25:29.822Z,1.30
2018-06-27T16:27:57.627Z,1.70
2018-06-27T16:30:25.454Z,2.10
2018-06-27T16:32:53.503Z,1.60
2018-06-27T16:35:21.392Z,1.80
2018-06-27T16:37:49.174Z,2.00
2018-06-27T16:40:16.963Z,2.20
2018-06-27T16:42:44.760Z,2.10
2018-06-27T16:45:12.599Z,2.07
2018-06-27T16:47:40.371Z,2.03
2018-06-27T16:50:08.679Z,2.30
2018-06-27T16:52:36.478Z,2.17
2018-06-27T16:55:04.455Z,2.37
2018-06-27T16:57:38.640Z,2.27
2018-06-27T17:00:06.950Z,2.33
2018-06-27T17:02:34.739Z,2.20
2018-06-27T17:05:02.571Z,2.57
2018-06-27T17:07:30.390Z,2.90
2018-06-27T17:09:58.159Z,3.17
2018-06-27T17:12:26.066Z,2.73
2018-06-27T17:14:53.811Z,2.63
2018-06-27T17:17:21.620Z,2.77
2018-06-27T17:19:49.414Z,2.77
2018-06-27T17:22:17.225Z,3.47
2018-06-27T17:24:45.021Z,2.80
2018-06-27T17:27:12.814Z,2.47
2018-06-27T17:29:40.958Z,2.80
2018-06-27T17:32:08.759Z,3.10
2018-06-27T17:34:36.570Z,2.90
2018-06-27T17:37:04.378Z,2.87
2018-06-27T17:39:32.181Z,2.40
2018-06-27T17:41:59.991Z,2.70
2018-06-27T17:44:27.786Z,2.80
2018-06-27T17:46:55.608Z,2.83
2018-06-27T17:49:23.450Z,8.90
2018-06-27T17:51:51.309Z,19.13
2018-06-27T17:54:19.116Z,3.67
2018-06-27T17:56:46.922Z,3.60
2018-06-27T17:59:14.719Z,5.20
2018-06-27T18:01:43.416Z,6.50
2018-06-27T18:04:11.210Z,2.90
2018-06-27T18:06:39.018Z,2.43
2018-06-27T18:09:07.625Z,3.40
2018-06-27T18:11:35.448Z,2.73
2018-06-27T18:14:03.587Z,3.37
2018-06-27T18:16:31.391Z,3.10
2018-06-27T18:18:59.195Z,12.43
2018-06-27T18:21:27.014Z,9.27
2018-06-27T18:23:54.819Z,3.23
2018-06-27T18:26:22.766Z,2.20
2018-06-27T18:28:50.571Z,2.30
2018-06-27T18:31:18.484Z,2.70
2018-06-27T18:33:46.523Z,2.40
2018-06-27T18:36:14.388Z,2.10
2018-06-27T18:38:42.280Z,2.60
2018-06-27T18:41:10.075Z,2.63
2018-06-27T18:43:37.901Z,2.10
2018-06-27T18:46:07.311Z,2.23
2018-06-27T18:48:35.395Z,2.60
2018-06-27T18:51:03.179Z,1.97
2018-06-27T18:53:31.007Z,1.80
2018-06-27T18:56:00.065Z,1.80
2018-06-27T18:58:27.923Z,1.90
2018-06-27T19:00:55.748Z,2.20
2018-06-27T19:03:23.566Z,1.90
2018-06-27T19:05:51.403Z,2.00
2018-06-27T19:08:19.321Z,1.83
2018-06-27T19:10:47.286Z,1.60
2018-06-27T19:13:15.115Z,1.97
2018-06-27T19:15:42.931Z,1.93
2018-06-27T19:18:10.750Z,1.90
2018-06-27T19:20:38.551Z,1.90
2018-06-27T19:23:06.367Z,2.20
2018-06-27T19:25:34.180Z,1.87
2018-06-27T19:28:01.998Z,1.90
2018-06-27T19:30:29.792Z,1.80
2018-06-27T19:32:57.612Z,2.10
2018-06-27T19:35:25.407Z,2.40
2018-06-27T19:37:53.227Z,1.83
2018-06-27T19:40:21.022Z,1.77
2018-06-27T19:42:48.836Z,2.30
2018-06-27T19:45:16.631Z,2.20
2018-06-27T19:47:44.448Z,2.60
2018-06-27T19:50:12.272Z,2.83
2018-06-27T19:52:40.077Z,2.10
2018-06-27T19:55:07.891Z,2.70
2018-06-27T19:57:35.714Z,2.60
2018-06-27T20:00:03.571Z,3.43
2018-06-27T20:02:31.437Z,3.00
2018-06-27T20:04:59.186Z,2.53
2018-06-27T20:07:27.071Z,3.13
2018-06-27T20:09:54.806Z,3.23
2018-06-27T20:12:22.610Z,2.20
2018-06-27T20:14:50.416Z,2.97
2018-06-27T20:17:18.220Z,2.20
2018-06-27T20:19:46.462Z,2.40
2018-06-27T20:22:14.249Z,2.27
2018-06-27T20:24:42.035Z,3.13
2018-06-27T20:27:09.830Z,2.93
2018-06-27T20:29:37.651Z,2.80
2018-06-27T20:32:05.497Z,2.47
2018-06-27T20:34:33.303Z,2.50
2018-06-27T20:37:01.104Z,3.00
2018-06-27T20:39:28.915Z,2.83
2018-06-27T20:41:56.727Z,2.40
2018-06-27T20:44:24.584Z,3.10
2018-06-27T20:46:52.347Z,2.70
2018-06-27T20:49:20.158Z,2.83
2018-06-27T20:51:47.958Z,2.63
2018-06-27T20:54:15.761Z,3.07
2018-06-27T20:56:43.655Z,3.07
2018-06-27T20:59:11.442Z,2.40
2018-06-27T21:01:40.171Z,3.10
2018-06-27T21:04:07.992Z,2.93
2018-06-27T21:06:35.814Z,2.90
2018-06-27T21:09:05.765Z,2.83
2018-06-27T21:11:33.574Z,2.50
2018-06-27T21:14:01.359Z,2.90
2018-06-27T21:16:29.175Z,3.10
2018-06-27T21:18:56.964Z,2.60
2018-06-27T21:21:24.777Z,2.90
2018-06-27T21:23:52.572Z,2.60
2018-06-27T21:26:20.383Z,2.60
2018-06-27T21:28:48.188Z,2.90
2018-06-27T21:31:15.999Z,3.33
2018-06-27T21:33:43.798Z,3.23
2018-06-27T21:36:11.615Z,2.70
2018-06-27T21:38:39.403Z,2.87
2018-06-27T21:41:07.191Z,2.33
2018-06-27T21:43:35.034Z,2.63
2018-06-27T21:46:02.822Z,2.37
2018-06-27T21:48:30.636Z,2.10
2018-06-27T21:50:58.618Z,2.67
2018-06-27T21:53:26.446Z,2.67
2018-06-27T21:55:54.331Z,2.77
2018-06-27T21:58:22.152Z,2.83
2018-06-27T22:00:49.948Z,2.40
2018-06-27T22:03:17.756Z,2.60
2018-06-27T22:05:45.547Z,2.77
2018-06-27T22:08:13.358Z,2.20
2018-06-27T22:10:41.166Z,2.30
2018-06-27T22:13:10.611Z,2.53
2018-06-27T22:15:38.968Z,2.47
2018-06-27T22:18:06.803Z,2.80
2018-06-27T22:20:35.147Z,2.87
2018-06-27T22:23:02.958Z,2.20
2018-06-27T22:25:30.771Z,2.37
2018-06-27T22:27:58.592Z,2.10
2018-06-27T22:30:26.399Z,2.57
2018-06-27T22:32:54.211Z,2.40
2018-06-27T22:35:22.155Z,2.80
2018-06-27T22:37:49.947Z,2.40
2018-06-27T22:40:17.859Z,2.50
2018-06-27T22:42:45.698Z,2.50
2018-06-27T22:45:13.511Z,1.83
2018-06-27T22:47:41.607Z,2.40
2018-06-27T22:50:10.003Z,2.40
2018-06-27T22:52:37.804Z,2.30
2018-06-27T22:55:05.623Z,2.33
2018-06-27T22:57:34.152Z,2.40
2018-06-27T23:00:02.983Z,2.20
2018-06-27T23:02:30.823Z,2.60
2018-06-27T23:04:58.924Z,2.50
2018-06-27T23:07:26.941Z,2.83
2018-06-27T23:09:54.724Z,2.50
2018-06-27T23:12:22.999Z,2.50
2018-06-27T23:14:51.705Z,2.67
2018-06-27T23:17:20.852Z,2.77
2018-06-27T23:19:48.711Z,2.10
2018-06-27T23:22:22.179Z,2.53
2018-06-27T23:24:49.990Z,2.30
2018-06-27T23:27:17.771Z,2.27
2018-06-27T23:29:46.407Z,2.20
2018-06-27T23:32:14.519Z,1.93
2018-06-27T23:34:42.343Z,2.37
2018-06-27T23:37:10.356Z,2.40
2018-06-27T23:39:38.157Z,2.60
2018-06-27T23:42:05.942Z,2.03
2018-06-27T23:44:33.752Z,2.50
2018-06-27T23:47:01.547Z,2.37
2018-06-27T23:49:29.379Z,2.40
2018-06-27T23:51:57.161Z,2.40
2018-06-27T23:54:24.962Z,2.33
2018-06-27T23:56:52.750Z,2.30
2018-06-27T23:59:20.971Z,2.23
